createdAt,value
2017-06-21T00:00:28.146Z,21
2017-06-21T00:01:27.540Z,21.01
2017-06-21T00:02:28.146Z,20.96
2017-06-21T00:03:27.840Z,20.98
2017-06-21T00:04:28.144Z,21.01
2017-06-21T00:05:27.838Z,20.9
2017-06-21T00:06:28.149Z,21.01
2017-06-21T00:07:28.147Z,20.93
2017-06-21T00:08:27.839Z,20.88
2017-06-21T00:09:28.148Z,20.98
2017-06-21T00:10:28.151Z,20.98
2017-06-21T00:11:28.149Z,20.95
2017-06-21T00:12:28.149Z,20.95
2017-06-21T00:13:28.144Z,20.9
2017-06-21T00:14:27.841Z,20.86
2017-06-21T00:15:28.145Z,20.89
2017-06-21T00:16:28.144Z,20.88
2017-06-21T00:17:27.839Z,20.93
2017-06-21T00:18:28.146Z,20.83
2017-06-21T00:19:28.145Z,20.86
2017-06-21T00:20:28.147Z,20.78
2017-06-21T00:21:28.144Z,20.77
2017-06-21T00:22:27.845Z,20.74
2017-06-21T00:23:28.149Z,20.73
2017-06-21T00:24:28.144Z,20.73
2017-06-21T00:25:27.840Z,20.71
2017-06-21T00:26:28.145Z,20.74
2017-06-21T00:27:28.144Z,20.7
2017-06-21T00:28:27.838Z,20.75
2017-06-21T00:29:28.147Z,20.64
2017-06-21T00:30:28.145Z,20.7
2017-06-21T00:31:27.841Z,20.68
2017-06-21T00:32:28.142Z,20.58
2017-06-21T00:33:27.844Z,20.59
2017-06-21T00:34:28.138Z,20.58
2017-06-21T00:35:27.836Z,20.48
2017-06-21T00:36:28.144Z,20.39
2017-06-21T00:37:28.142Z,20.4
2017-06-21T00:38:28.144Z,20.32
2017-06-21T00:39:27.846Z,20.37
2017-06-21T00:40:28.141Z,20.3
2017-06-21T00:41:27.876Z,20.3
2017-06-21T00:42:27.835Z,20.33
2017-06-21T00:43:28.145Z,20.32
2017-06-21T00:44:28.139Z,20.27
2017-06-21T00:45:27.833Z,20.18
2017-06-21T00:46:28.140Z,20.19
2017-06-21T00:47:27.831Z,20.19
2017-06-21T00:48:28.140Z,20.22
2017-06-21T00:49:28.138Z,20.3
2017-06-21T00:50:28.140Z,20.21
2017-06-21T00:51:28.139Z,20.26
2017-06-21T00:52:28.135Z,20.17
2017-06-21T00:53:27.834Z,20.24
2017-06-21T00:54:28.134Z,20.15
2017-06-21T00:55:27.836Z,20.19
2017-06-21T00:56:27.830Z,20.32
2017-06-21T00:57:28.140Z,20.21
2017-06-21T00:58:27.830Z,20.36
2017-06-21T00:59:28.140Z,20.3
2017-06-21T01:00:27.835Z,20.33
2017-06-21T01:01:27.830Z,20.39
2017-06-21T01:02:28.135Z,20.36
2017-06-21T01:03:27.831Z,20.36
2017-06-21T01:04:27.830Z,20.29
2017-06-21T01:05:28.135Z,20.29
2017-06-21T01:06:28.134Z,20.34
2017-06-21T01:07:27.830Z,20.3
2017-06-21T01:08:28.135Z,20.32
2017-06-21T01:09:28.136Z,20.33
2017-06-21T01:10:28.139Z,20.33
2017-06-21T01:11:28.135Z,20.32
2017-06-21T01:12:28.140Z,20.33
2017-06-21T01:13:27.829Z,20.33
2017-06-21T01:14:28.135Z,20.36
2017-06-21T01:15:28.135Z,20.33
2017-06-21T01:16:27.829Z,20.34
2017-06-21T01:17:28.134Z,20.3
2017-06-21T01:18:27.827Z,20.32
2017-06-21T01:19:28.134Z,20.32
2017-06-21T01:20:28.134Z,20.27
2017-06-21T01:21:28.133Z,20.3
2017-06-21T01:22:28.136Z,20.3
2017-06-21T01:23:27.827Z,20.32
2017-06-21T01:24:28.132Z,20.33
2017-06-21T01:25:28.134Z,20.22
2017-06-21T01:26:27.825Z,20.34
2017-06-21T01:27:27.825Z,20.22
2017-06-21T01:28:28.129Z,20.22
2017-06-21T01:29:27.824Z,20.14
2017-06-21T01:30:27.829Z,20.19
2017-06-21T01:31:28.133Z,20.17
2017-06-21T01:32:28.131Z,20.19
2017-06-21T01:33:27.830Z,20.18
2017-06-21T01:34:28.125Z,20.19
2017-06-21T01:35:28.127Z,20.21
2017-06-21T01:36:28.129Z,20.14
2017-06-21T01:37:28.132Z,20.17
2017-06-21T01:38:27.522Z,20.17
2017-06-21T01:39:28.126Z,20.17
2017-06-21T01:40:28.132Z,20.18
2017-06-21T01:41:28.133Z,20.1
2017-06-21T01:42:28.126Z,20.17
2017-06-21T01:43:27.824Z,20.15
2017-06-21T01:44:28.128Z,20.11
2017-06-21T01:45:28.126Z,20.14
2017-06-21T01:46:28.130Z,20.07
2017-06-21T01:47:28.131Z,20.08
2017-06-21T01:48:28.123Z,20.1
2017-06-21T01:49:28.122Z,19.97
2017-06-21T01:50:28.125Z,19.92
2017-06-21T01:51:28.122Z,19.94
2017-06-21T01:52:28.123Z,19.96
2017-06-21T01:53:27.817Z,19.93
2017-06-21T01:54:28.125Z,19.92
2017-06-21T01:55:28.122Z,19.99
2017-06-21T01:56:28.124Z,19.96
2017-06-21T01:57:28.121Z,19.89
2017-06-21T01:58:28.124Z,19.81
2017-06-21T01:59:27.815Z,19.81
2017-06-21T02:00:28.125Z,19.89
2017-06-21T02:01:28.123Z,19.93
2017-06-21T02:02:27.815Z,19.77
2017-06-21T02:03:28.118Z,19.84
2017-06-21T02:04:27.813Z,19.75
2017-06-21T02:05:27.813Z,19.67
2017-06-21T02:06:27.810Z,19.71
2017-06-21T02:07:28.122Z,19.74
2017-06-21T02:08:28.119Z,19.75
2017-06-21T02:09:28.115Z,19.67
2017-06-21T02:10:27.810Z,19.71
2017-06-21T02:11:28.116Z,19.7
2017-06-21T02:12:28.122Z,19.59
2017-06-21T02:13:27.810Z,19.57
2017-06-21T02:14:28.123Z,19.63
2017-06-21T02:15:28.118Z,19.57
2017-06-21T02:16:28.116Z,19.57
2017-06-21T02:17:27.813Z,19.59
2017-06-21T02:18:28.115Z,19.56
2017-06-21T02:19:27.806Z,19.47
2017-06-21T02:20:28.116Z,19.55
2017-06-21T02:21:28.114Z,19.47
2017-06-21T02:22:27.498Z,19.47
2017-06-21T02:23:27.806Z,19.49
2017-06-21T02:24:28.113Z,19.45
2017-06-21T02:25:28.115Z,19.41
2017-06-21T02:26:28.110Z,19.52
2017-06-21T02:27:28.109Z,19.41
2017-06-21T02:28:28.112Z,19.45
2017-06-21T02:29:28.111Z,19.52
2017-06-21T02:30:28.110Z,19.45
2017-06-21T02:31:28.112Z,19.47
2017-06-21T02:32:28.110Z,19.42
2017-06-21T02:33:27.801Z,19.44
2017-06-21T02:34:28.104Z,19.41
2017-06-21T02:35:28.109Z,19.38
2017-06-21T02:36:27.802Z,19.41
2017-06-21T02:37:27.803Z,19.38
2017-06-21T02:38:27.800Z,19.38
2017-06-21T02:39:27.798Z,19.35
2017-06-21T02:40:28.107Z,19.41
2017-06-21T02:41:28.106Z,19.37
2017-06-21T02:42:27.801Z,19.37
2017-06-21T02:43:28.106Z,19.44
2017-06-21T02:44:28.103Z,19.38
2017-06-21T02:45:28.101Z,19.38
2017-06-21T02:46:28.111Z,19.39
2017-06-21T02:47:28.103Z,19.42
2017-06-21T02:48:28.106Z,19.37
2017-06-21T02:49:28.107Z,19.38
2017-06-21T02:50:27.794Z,19.39
2017-06-21T02:51:28.106Z,19.32
2017-06-21T02:52:28.105Z,19.34
2017-06-21T02:53:28.100Z,19.34
2017-06-21T02:54:28.105Z,19.38
2017-06-21T02:55:28.098Z,19.39
2017-06-21T02:56:28.101Z,19.38
2017-06-21T02:57:28.100Z,19.27
2017-06-21T02:58:28.096Z,19.35
2017-06-21T02:59:28.101Z,19.38
2017-06-21T03:00:28.103Z,19.3
2017-06-21T03:01:28.103Z,19.32
2017-06-21T03:02:28.096Z,19.32
2017-06-21T03:03:28.094Z,19.29
2017-06-21T03:04:28.096Z,19.29
2017-06-21T03:05:27.790Z,19.37
2017-06-21T03:06:28.096Z,19.29
2017-06-21T03:07:28.094Z,19.39
2017-06-21T03:08:27.789Z,19.41
2017-06-21T03:09:27.788Z,19.27
2017-06-21T03:10:28.092Z,19.35
2017-06-21T03:11:28.093Z,19.29
2017-06-21T03:12:28.129Z,19.3
2017-06-21T03:13:28.094Z,19.24
2017-06-21T03:14:28.088Z,19.26
2017-06-21T03:15:28.091Z,19.3
2017-06-21T03:16:28.089Z,19.38
2017-06-21T03:17:28.089Z,19.42
2017-06-21T03:18:27.787Z,19.42
2017-06-21T03:19:28.091Z,19.47
2017-06-21T03:20:28.092Z,19.38
2017-06-21T03:21:28.088Z,19.35
2017-06-21T03:22:28.091Z,19.44
2017-06-21T03:23:28.090Z,19.35
2017-06-21T03:24:28.090Z,19.41
2017-06-21T03:25:27.783Z,19.38
2017-06-21T03:26:27.782Z,19.42
2017-06-21T03:27:28.082Z,19.41
2017-06-21T03:28:27.776Z,19.39
2017-06-21T03:29:28.085Z,19.35
2017-06-21T03:30:27.777Z,19.35
2017-06-21T03:31:27.779Z,19.29
2017-06-21T03:32:27.782Z,19.3
2017-06-21T03:33:27.780Z,19.27
2017-06-21T03:34:28.081Z,19.27
2017-06-21T03:35:28.084Z,19.24
2017-06-21T03:36:28.078Z,19.24
2017-06-21T03:37:27.775Z,19.27
2017-06-21T03:38:28.078Z,19.29
2017-06-21T03:39:28.079Z,19.26
2017-06-21T03:40:28.077Z,19.27
2017-06-21T03:41:28.120Z,19.37
2017-06-21T03:42:27.771Z,19.27
2017-06-21T03:43:28.079Z,19.29
2017-06-21T03:44:27.767Z,19.34
2017-06-21T03:45:28.076Z,19.38
2017-06-21T03:46:28.073Z,19.37
2017-06-21T03:47:27.767Z,19.34
2017-06-21T03:48:28.076Z,19.37
2017-06-21T03:49:27.463Z,19.47
2017-06-21T03:50:28.077Z,19.48
2017-06-21T03:51:27.765Z,19.45
2017-06-21T03:52:27.771Z,19.41
2017-06-21T03:53:27.764Z,19.49
2017-06-21T03:54:27.764Z,19.53
2017-06-21T03:55:27.764Z,19.53
2017-06-21T03:56:28.070Z,19.59
2017-06-21T03:57:27.765Z,19.74
2017-06-21T03:58:28.070Z,19.81
2017-06-21T03:59:28.070Z,19.85
2017-06-21T04:00:27.764Z,19.87
2017-06-21T04:01:28.068Z,19.93
2017-06-21T04:02:27.456Z,19.94
2017-06-21T04:03:28.068Z,20
2017-06-21T04:04:28.063Z,20.02
2017-06-21T04:05:28.065Z,20.15
2017-06-21T04:06:28.067Z,20.11
2017-06-21T04:07:27.453Z,20.17
2017-06-21T04:08:28.066Z,20.18
2017-06-21T04:09:28.068Z,20.21
2017-06-21T04:10:27.761Z,20.3
2017-06-21T04:11:28.065Z,20.4
2017-06-21T04:12:28.063Z,20.49
2017-06-21T04:13:27.756Z,20.46
2017-06-21T04:14:28.063Z,20.49
2017-06-21T04:15:27.758Z,20.52
2017-06-21T04:16:28.061Z,20.59
2017-06-21T04:17:28.063Z,20.82
2017-06-21T04:18:28.062Z,21.03
2017-06-21T04:19:28.059Z,21.4
2017-06-21T04:20:28.065Z,21.69
2017-06-21T04:21:27.758Z,22.07
2017-06-21T04:22:28.064Z,22.38
2017-06-21T04:23:28.063Z,22.81
2017-06-21T04:24:28.060Z,23.07
2017-06-21T04:25:27.760Z,23.14
2017-06-21T04:26:28.064Z,23.42
2017-06-21T04:27:27.756Z,23.51
2017-06-21T04:28:27.756Z,23.58
2017-06-21T04:29:28.063Z,23.74
2017-06-21T04:30:27.758Z,23.91
2017-06-21T04:31:27.760Z,24.14
2017-06-21T04:32:28.061Z,24.25
2017-06-21T04:33:28.063Z,24.38
2017-06-21T04:34:28.059Z,24.62
2017-06-21T04:35:28.062Z,24.51
2017-06-21T04:36:28.061Z,24.66
2017-06-21T04:37:28.064Z,24.82
2017-06-21T04:38:27.758Z,24.96
2017-06-21T04:39:28.061Z,25.12
2017-06-21T04:40:27.761Z,25.25
2017-06-21T04:41:28.061Z,25.36
2017-06-21T04:42:28.064Z,25.51
2017-06-21T04:43:28.064Z,25.56
2017-06-21T04:44:27.761Z,25.58
2017-06-21T04:45:28.072Z,25.74
2017-06-21T04:46:28.070Z,25.73
2017-06-21T04:47:28.071Z,25.88
2017-06-21T04:48:28.074Z,25.92
2017-06-21T04:49:28.072Z,26.06
2017-06-21T04:50:27.764Z,26.1
2017-06-21T04:51:28.073Z,26.27
2017-06-21T04:52:27.765Z,26.27
2017-06-21T04:53:28.071Z,26.37
2017-06-21T04:54:28.075Z,26.37
2017-06-21T04:55:28.076Z,26.55
2017-06-21T04:56:28.075Z,26.7
2017-06-21T04:57:28.077Z,26.68
2017-06-21T04:58:28.077Z,26.83
2017-06-21T04:59:27.468Z,26.91
2017-06-21T05:00:27.773Z,27.05
2017-06-21T05:01:28.087Z,27.16
2017-06-21T05:02:27.775Z,27.33
2017-06-21T05:03:28.086Z,27.41
2017-06-21T05:04:28.083Z,27.63
2017-06-21T05:05:27.785Z,27.85
2017-06-21T05:06:28.087Z,27.86
2017-06-21T05:07:28.089Z,28.04
2017-06-21T05:08:27.787Z,28.04
2017-06-21T05:09:28.094Z,28.33
2017-06-21T05:10:28.096Z,28.37
2017-06-21T05:11:27.790Z,28.46
2017-06-21T05:12:27.487Z,28.56
2017-06-21T05:13:27.488Z,28.6
2017-06-21T05:14:28.102Z,28.77
2017-06-21T05:15:28.105Z,28.84
2017-06-21T05:16:27.500Z,28.86
2017-06-21T05:17:28.108Z,28.93
2017-06-21T05:18:28.110Z,28.97
2017-06-21T05:19:27.502Z,29.1
2017-06-21T05:20:27.808Z,29.25
2017-06-21T05:21:28.116Z,29.24
2017-06-21T05:22:28.119Z,29.39
2017-06-21T05:23:28.120Z,29.65
2017-06-21T05:24:28.121Z,29.89
2017-06-21T05:25:27.821Z,29.94
2017-06-21T05:26:28.127Z,30.05
2017-06-21T05:27:28.129Z,30.23
2017-06-21T05:28:28.131Z,30.51
2017-06-21T05:29:28.134Z,30.56
2017-06-21T05:30:28.139Z,30.77
2017-06-21T05:31:28.142Z,30.92
2017-06-21T05:32:28.148Z,30.98
2017-06-21T05:33:28.147Z,30.92
2017-06-21T05:34:28.150Z,30.99
2017-06-21T05:35:28.161Z,31.17
2017-06-21T05:36:28.154Z,31.28
2017-06-21T05:37:28.160Z,31.23
2017-06-21T05:38:27.858Z,31.3
2017-06-21T05:39:28.168Z,31.45
2017-06-21T05:40:28.167Z,31.52
2017-06-21T05:41:28.174Z,31.6
2017-06-21T05:42:28.175Z,31.57
2017-06-21T05:43:28.178Z,31.69
2017-06-21T05:44:27.879Z,31.82
2017-06-21T05:45:28.188Z,31.85
2017-06-21T05:46:27.886Z,31.9
2017-06-21T05:47:28.189Z,31.9
2017-06-21T05:48:28.198Z,31.95
2017-06-21T05:49:28.199Z,31.97
2017-06-21T05:50:28.203Z,31.89
2017-06-21T05:51:27.903Z,32.02
2017-06-21T05:52:28.212Z,32.19
2017-06-21T05:53:27.912Z,32.41
2017-06-21T05:54:27.915Z,32.49
2017-06-21T05:55:28.227Z,32.67
2017-06-21T05:56:27.923Z,32.83
2017-06-21T05:57:27.928Z,32.91
2017-06-21T05:58:28.235Z,32.95
2017-06-21T05:59:28.239Z,32.93
2017-06-21T06:00:28.242Z,32.9
2017-06-21T06:01:27.943Z,32.95
2017-06-21T06:02:28.253Z,32.98
2017-06-21T06:03:28.284Z,32.98
2017-06-21T06:04:28.261Z,33
2017-06-21T06:05:28.263Z,33.04
2017-06-21T06:06:28.275Z,33.04
2017-06-21T06:07:28.272Z,33.28
2017-06-21T06:08:28.274Z,33.39
2017-06-21T06:09:28.286Z,33.6
2017-06-21T06:10:27.980Z,33.69
2017-06-21T06:11:27.990Z,33.81
2017-06-21T06:12:27.992Z,33.79
2017-06-21T06:13:27.997Z,33.84
2017-06-21T06:14:28.305Z,33.91
2017-06-21T06:15:28.007Z,34.02
2017-06-21T06:16:28.313Z,34.04
2017-06-21T06:17:27.706Z,34.13
2017-06-21T06:18:28.018Z,34.16
2017-06-21T06:19:28.021Z,34.21
2017-06-21T06:20:28.334Z,34.21
2017-06-21T06:21:28.037Z,34.19
2017-06-21T06:22:28.343Z,34.4
2017-06-21T06:23:28.346Z,34.55
2017-06-21T06:24:28.043Z,34.6
2017-06-21T06:25:28.353Z,34.69
2017-06-21T06:26:28.362Z,34.71
2017-06-21T06:27:28.366Z,34.82
2017-06-21T06:28:28.366Z,34.85
2017-06-21T06:29:28.067Z,35.03
2017-06-21T06:30:28.382Z,35.18
2017-06-21T06:31:28.081Z,35.2
2017-06-21T06:32:28.082Z,35.1
2017-06-21T06:33:28.086Z,35.16
2017-06-21T06:34:28.090Z,35.23
2017-06-21T06:35:28.404Z,35.13
2017-06-21T06:36:28.404Z,35.23
2017-06-21T06:37:28.410Z,35.23
2017-06-21T06:38:28.110Z,35.23
2017-06-21T06:39:28.418Z,35.47
2017-06-21T06:40:28.423Z,35.49
2017-06-21T06:41:28.428Z,35.56
2017-06-21T06:42:28.125Z,35.66
2017-06-21T06:43:28.435Z,35.75
2017-06-21T06:44:28.439Z,35.81
2017-06-21T06:45:28.442Z,35.74
2017-06-21T06:46:28.153Z,35.88
2017-06-21T06:47:28.453Z,35.94
2017-06-21T06:48:28.154Z,36.11
2017-06-21T06:49:28.155Z,36.24
2017-06-21T06:50:28.167Z,36.38
2017-06-21T06:51:28.166Z,36.47
2017-06-21T06:52:28.475Z,36.55
2017-06-21T06:53:28.483Z,36.65
2017-06-21T06:54:27.869Z,36.7
2017-06-21T06:55:28.491Z,36.78
2017-06-21T06:56:28.493Z,36.91
2017-06-21T06:57:28.491Z,37
2017-06-21T06:58:28.190Z,37.04
2017-06-21T06:59:28.238Z,37.1
2017-06-21T07:00:28.509Z,37.19
2017-06-21T07:01:28.510Z,37.34
2017-06-21T07:02:28.214Z,37.4
2017-06-21T07:03:28.515Z,37.56
2017-06-21T07:04:28.516Z,37.48
2017-06-21T07:05:28.216Z,37.58
2017-06-21T07:06:28.528Z,37.56
2017-06-21T07:07:28.528Z,37.53
2017-06-21T07:08:28.539Z,37.56
2017-06-21T07:09:28.229Z,37.71
2017-06-21T07:10:28.541Z,37.95
2017-06-21T07:11:28.579Z,38.04
2017-06-21T07:12:28.549Z,38.2
2017-06-21T07:13:28.553Z,38.35
2017-06-21T07:14:28.247Z,38.46
2017-06-21T07:15:28.254Z,38.42
2017-06-21T07:16:28.259Z,38.42
2017-06-21T07:17:28.567Z,38.53
2017-06-21T07:18:28.261Z,38.6
2017-06-21T07:19:27.961Z,38.57
2017-06-21T07:20:28.574Z,38.62
2017-06-21T07:21:28.276Z,38.68
2017-06-21T07:22:27.971Z,38.68
2017-06-21T07:23:28.282Z,38.84
2017-06-21T07:24:28.588Z,38.84
2017-06-21T07:25:28.591Z,38.98
2017-06-21T07:26:28.290Z,39.01
2017-06-21T07:27:28.288Z,39.07
2017-06-21T07:28:28.604Z,39
2017-06-21T07:29:28.293Z,39.14
2017-06-21T07:30:28.610Z,39.22
2017-06-21T07:31:28.610Z,39.25
2017-06-21T07:32:28.610Z,39.26
2017-06-21T07:33:28.614Z,39.25
2017-06-21T07:34:28.615Z,39.33
2017-06-21T07:35:28.624Z,39.14
2017-06-21T07:36:28.317Z,39.04
2017-06-21T07:37:28.626Z,39.12
2017-06-21T07:38:28.631Z,39.39
2017-06-21T07:39:28.334Z,39.42
2017-06-21T07:40:28.634Z,39.39
2017-06-21T07:41:28.332Z,39.52
2017-06-21T07:42:28.641Z,39.67
2017-06-21T07:43:28.335Z,39.8
2017-06-21T07:44:28.646Z,39.91
2017-06-21T07:45:28.649Z,39.88
2017-06-21T07:46:28.652Z,40
2017-06-21T07:47:28.671Z,40.05
2017-06-21T07:48:28.659Z,40.07
2017-06-21T07:49:28.664Z,40.01
2017-06-21T07:50:28.667Z,40.12
2017-06-21T07:51:28.664Z,40.23
2017-06-21T07:52:28.671Z,40.2
2017-06-21T07:53:28.367Z,40.36
2017-06-21T07:54:28.679Z,40.36
2017-06-21T07:55:28.370Z,40.29
2017-06-21T07:56:28.683Z,40.4
2017-06-21T07:57:28.721Z,40.42
2017-06-21T07:58:28.683Z,40.2
2017-06-21T07:59:28.381Z,40.16
2017-06-21T08:00:28.695Z,40.29
2017-06-21T08:01:28.385Z,40.29
2017-06-21T08:02:28.392Z,40.42
2017-06-21T08:03:28.698Z,40.36
2017-06-21T08:04:28.396Z,40.55
2017-06-21T08:05:28.710Z,40.7
2017-06-21T08:06:28.710Z,40.8
2017-06-21T08:07:28.408Z,40.8
2017-06-21T08:08:28.712Z,40.89
2017-06-21T08:09:28.417Z,40.92
2017-06-21T08:10:28.719Z,40.92
2017-06-21T08:11:28.727Z,40.89
2017-06-21T08:12:28.421Z,41.05
2017-06-21T08:13:28.733Z,41.03
2017-06-21T08:14:28.731Z,40.98
2017-06-21T08:15:28.749Z,41.1
2017-06-21T08:16:28.735Z,41.23
2017-06-21T08:17:28.738Z,41.39
2017-06-21T08:18:28.431Z,41.57
2017-06-21T08:19:28.743Z,41.64
2017-06-21T08:20:28.749Z,41.74
2017-06-21T08:21:28.747Z,41.87
2017-06-21T08:22:28.754Z,41.91
2017-06-21T08:23:28.445Z,41.9
2017-06-21T08:24:28.458Z,41.99
2017-06-21T08:25:28.758Z,41.96
2017-06-21T08:26:28.758Z,42.03
2017-06-21T08:27:28.764Z,41.98
2017-06-21T08:28:28.764Z,41.98
2017-06-21T08:29:28.769Z,41.96
2017-06-21T08:30:28.465Z,42.09
2017-06-21T08:31:28.770Z,42.03
2017-06-21T08:32:28.494Z,42.09
2017-06-21T08:33:28.777Z,42.07
2017-06-21T08:34:28.778Z,42.03
2017-06-21T08:35:28.783Z,42.06
2017-06-21T08:36:28.479Z,42.06
2017-06-21T08:37:28.784Z,42.02
2017-06-21T08:38:28.485Z,42.09
2017-06-21T08:39:28.791Z,42.06
2017-06-21T08:40:28.794Z,42.09
2017-06-21T08:41:28.825Z,42.14
2017-06-21T08:42:28.799Z,42
2017-06-21T08:43:28.800Z,41.55
2017-06-21T08:44:28.806Z,41.44
2017-06-21T08:45:28.498Z,41.44
2017-06-21T08:46:28.810Z,41.58
2017-06-21T08:47:28.807Z,41.78
2017-06-21T08:48:28.810Z,41.88
2017-06-21T08:49:28.814Z,41.9
2017-06-21T08:50:28.817Z,41.87
2017-06-21T08:51:28.822Z,41.8
2017-06-21T08:52:28.822Z,41.67
2017-06-21T08:53:28.516Z,41.36
2017-06-21T08:54:28.212Z,41
2017-06-21T08:55:28.829Z,40.66
2017-06-21T08:56:28.828Z,40.1
2017-06-21T08:57:28.831Z,39.45
2017-06-21T08:58:28.837Z,39.03
2017-06-21T08:59:28.838Z,38.54
2017-06-21T09:00:28.845Z,38.13
2017-06-21T09:01:28.228Z,37.75
2017-06-21T09:02:28.839Z,37.34
2017-06-21T09:03:28.844Z,37.11
2017-06-21T09:04:28.539Z,36.75
2017-06-21T09:05:28.850Z,36.39
2017-06-21T09:06:28.548Z,36.17
2017-06-21T09:07:28.855Z,36.05
2017-06-21T09:08:28.854Z,35.81
2017-06-21T09:09:28.857Z,35.74
2017-06-21T09:10:28.860Z,35.5
2017-06-21T09:11:28.859Z,35.32
2017-06-21T09:12:28.867Z,35.23
2017-06-21T09:13:28.864Z,35.23
2017-06-21T09:14:28.559Z,35.15
2017-06-21T09:15:28.870Z,35.07
2017-06-21T09:16:28.260Z,34.98
2017-06-21T09:17:28.875Z,35
2017-06-21T09:18:28.870Z,34.88
2017-06-21T09:19:28.877Z,34.88
2017-06-21T09:20:28.883Z,34.89
2017-06-21T09:21:28.889Z,34.86
2017-06-21T09:22:28.882Z,34.73
2017-06-21T09:23:28.888Z,34.75
2017-06-21T09:24:28.579Z,34.58
2017-06-21T09:25:28.582Z,34.46
2017-06-21T09:26:28.889Z,34.37
2017-06-21T09:27:28.582Z,34.25
2017-06-21T09:28:28.891Z,34.26
2017-06-21T09:29:28.892Z,34.25
2017-06-21T09:30:28.895Z,34.22
2017-06-21T09:31:28.900Z,34.11
2017-06-21T09:32:28.594Z,34.1
2017-06-21T09:33:28.897Z,34.16
2017-06-21T09:34:28.601Z,34.16
2017-06-21T09:35:28.907Z,34.04
2017-06-21T09:36:28.907Z,33.98
2017-06-21T09:37:28.905Z,33.82
2017-06-21T09:38:28.908Z,33.66
2017-06-21T09:39:28.912Z,33.39
2017-06-21T09:40:28.610Z,33.19
2017-06-21T09:41:28.916Z,33.09
2017-06-21T09:42:28.918Z,33.03
2017-06-21T09:43:28.916Z,33.15
2017-06-21T09:44:28.916Z,33.2
2017-06-21T09:45:28.919Z,33.15
2017-06-21T09:46:28.922Z,33.03
2017-06-21T09:47:28.617Z,33.13
2017-06-21T09:48:28.313Z,33.05
2017-06-21T09:49:28.923Z,33.19
2017-06-21T09:50:28.627Z,33.08
2017-06-21T09:51:28.927Z,32.88
2017-06-21T09:52:28.321Z,32.64
2017-06-21T09:53:28.630Z,32.59
2017-06-21T09:54:28.633Z,32.42
2017-06-21T09:55:28.934Z,32.39
2017-06-21T09:56:28.941Z,32.3
2017-06-21T09:57:28.633Z,32.42
2017-06-21T09:58:28.634Z,32.63
2017-06-21T09:59:28.941Z,32.64
2017-06-21T10:00:28.641Z,32.71
2017-06-21T10:01:28.946Z,32.78
2017-06-21T10:02:28.642Z,32.82
2017-06-21T10:03:28.642Z,32.75
2017-06-21T10:04:28.642Z,32.79
2017-06-21T10:05:28.952Z,32.83
2017-06-21T10:06:28.647Z,32.85
2017-06-21T10:07:28.341Z,32.97
2017-06-21T10:08:28.958Z,33.09
2017-06-21T10:09:28.960Z,33
2017-06-21T10:10:28.959Z,32.91
2017-06-21T10:11:28.350Z,32.86
2017-06-21T10:12:28.964Z,32.86
2017-06-21T10:13:28.962Z,32.78
2017-06-21T10:14:28.659Z,32.64
2017-06-21T10:15:28.357Z,32.68
2017-06-21T10:16:28.969Z,32.75
2017-06-21T10:17:28.971Z,32.79
2017-06-21T10:18:28.972Z,32.93
2017-06-21T10:19:28.976Z,32.82
2017-06-21T10:20:28.670Z,32.83
2017-06-21T10:21:28.977Z,32.82
2017-06-21T10:22:28.672Z,32.88
2017-06-21T10:23:28.982Z,32.79
2017-06-21T10:24:28.673Z,32.93
2017-06-21T10:25:28.984Z,32.91
2017-06-21T10:26:28.711Z,32.97
2017-06-21T10:27:28.984Z,33.01
2017-06-21T10:28:28.681Z,33.01
2017-06-21T10:29:28.990Z,33.01
2017-06-21T10:30:28.987Z,33.08
2017-06-21T10:31:28.685Z,33.15
2017-06-21T10:32:28.687Z,33.15
2017-06-21T10:33:28.993Z,33.09
2017-06-21T10:34:28.380Z,33.03
2017-06-21T10:35:28.696Z,33.05
2017-06-21T10:36:28.385Z,33
2017-06-21T10:37:28.694Z,33.19
2017-06-21T10:38:28.698Z,33.19
2017-06-21T10:39:29.004Z,33.2
2017-06-21T10:40:29.005Z,33.13
2017-06-21T10:41:29.005Z,33.1
2017-06-21T10:42:29.006Z,33.17
2017-06-21T10:43:28.701Z,33.16
2017-06-21T10:44:28.709Z,33.17
2017-06-21T10:45:29.048Z,33.16
2017-06-21T10:46:29.011Z,33.17
2017-06-21T10:47:29.013Z,33.28
2017-06-21T10:48:28.710Z,33.29
2017-06-21T10:49:29.017Z,33.2
2017-06-21T10:50:28.713Z,33.03
2017-06-21T10:51:29.018Z,33.13
2017-06-21T10:52:29.021Z,33.1
2017-06-21T10:53:28.755Z,33.05
2017-06-21T10:54:29.026Z,33.13
2017-06-21T10:55:29.025Z,33.12
2017-06-21T10:56:28.414Z,33.13
2017-06-21T10:57:28.729Z,33.19
2017-06-21T10:58:29.029Z,33.16
2017-06-21T10:59:29.030Z,33.15
2017-06-21T11:00:29.032Z,33.08
2017-06-21T11:01:28.426Z,33.08
2017-06-21T11:02:29.032Z,33.1
2017-06-21T11:03:29.034Z,33.08
2017-06-21T11:04:29.033Z,33.09
2017-06-21T11:05:28.732Z,33.01
2017-06-21T11:06:29.037Z,33.09
2017-06-21T11:07:29.037Z,33.15
2017-06-21T11:08:29.041Z,33.08
2017-06-21T11:09:29.047Z,33.08
2017-06-21T11:10:29.044Z,33.16
2017-06-21T11:11:28.738Z,33.19
2017-06-21T11:12:29.046Z,33.17
2017-06-21T11:13:28.738Z,33.22
2017-06-21T11:14:29.048Z,33.2
2017-06-21T11:15:29.053Z,33.23
2017-06-21T11:16:28.745Z,33.22
2017-06-21T11:17:29.081Z,33.22
2017-06-21T11:18:29.054Z,33.15
2017-06-21T11:19:29.089Z,33.1
2017-06-21T11:20:28.751Z,33.17
2017-06-21T11:21:28.755Z,33.16
2017-06-21T11:22:29.059Z,33.08
2017-06-21T11:23:28.449Z,33.05
2017-06-21T11:24:29.063Z,33.16
2017-06-21T11:25:29.066Z,33.09
2017-06-21T11:26:28.756Z,33.13
2017-06-21T11:27:28.762Z,33
2017-06-21T11:28:28.765Z,32.94
2017-06-21T11:29:29.070Z,32.94
2017-06-21T11:30:29.069Z,32.88
2017-06-21T11:31:29.074Z,32.85
2017-06-21T11:32:29.073Z,32.85
2017-06-21T11:33:28.462Z,32.86
2017-06-21T11:34:29.083Z,32.76
2017-06-21T11:35:28.774Z,32.79
2017-06-21T11:36:29.081Z,32.66
2017-06-21T11:37:28.775Z,32.53
2017-06-21T11:38:29.080Z,32.57
2017-06-21T11:39:29.082Z,32.45
2017-06-21T11:40:29.084Z,32.44
2017-06-21T11:41:28.494Z,32.44
2017-06-21T11:42:29.086Z,32.59
2017-06-21T11:43:28.782Z,32.6
2017-06-21T11:44:28.473Z,32.64
2017-06-21T11:45:28.782Z,32.82
2017-06-21T11:46:28.788Z,32.9
2017-06-21T11:47:28.786Z,32.91
2017-06-21T11:48:29.094Z,32.93
2017-06-21T11:49:28.484Z,33
2017-06-21T11:50:28.787Z,32.91
2017-06-21T11:51:28.794Z,33.03
2017-06-21T11:52:29.099Z,32.9
2017-06-21T11:53:28.792Z,32.93
2017-06-21T11:54:29.097Z,33
2017-06-21T11:55:28.797Z,32.98
2017-06-21T11:56:29.103Z,32.97
2017-06-21T11:57:28.802Z,32.97
2017-06-21T11:58:28.801Z,32.93
2017-06-21T11:59:29.106Z,32.86
2017-06-21T12:00:29.109Z,32.88
2017-06-21T12:01:29.112Z,32.9
2017-06-21T12:02:29.110Z,32.9
2017-06-21T12:03:28.801Z,32.97
2017-06-21T12:04:28.497Z,32.93
2017-06-21T12:05:29.120Z,33.01
2017-06-21T12:06:28.503Z,32.98
2017-06-21T12:07:28.504Z,32.94
2017-06-21T12:08:28.810Z,32.97
2017-06-21T12:09:28.505Z,32.97
2017-06-21T12:10:28.509Z,33.01
2017-06-21T12:11:29.125Z,32.93
2017-06-21T12:12:28.818Z,33.09
2017-06-21T12:13:28.824Z,32.94
2017-06-21T12:14:28.818Z,33
2017-06-21T12:15:28.823Z,32.98
2017-06-21T12:16:28.518Z,32.94
2017-06-21T12:17:28.829Z,32.97
2017-06-21T12:18:28.824Z,32.91
2017-06-21T12:19:28.824Z,32.94
2017-06-21T12:20:28.830Z,32.98
2017-06-21T12:21:28.827Z,33
2017-06-21T12:22:28.519Z,33.04
2017-06-21T12:23:28.835Z,33.04
2017-06-21T12:24:28.831Z,33.09
2017-06-21T12:25:29.137Z,32.94
2017-06-21T12:26:29.141Z,32.94
2017-06-21T12:27:28.836Z,32.97
2017-06-21T12:28:28.837Z,33.05
2017-06-21T12:29:29.144Z,33.08
2017-06-21T12:30:28.840Z,32.97
2017-06-21T12:31:28.843Z,32.95
2017-06-21T12:32:28.843Z,32.94
2017-06-21T12:33:28.843Z,32.97
2017-06-21T12:34:28.841Z,32.98
2017-06-21T12:35:29.145Z,32.97
2017-06-21T12:36:28.844Z,32.97
2017-06-21T12:37:29.152Z,32.86
2017-06-21T12:38:29.153Z,32.82
2017-06-21T12:39:28.541Z,32.79
2017-06-21T12:40:29.161Z,32.72
2017-06-21T12:41:29.158Z,32.64
2017-06-21T12:42:28.859Z,32.66
2017-06-21T12:43:29.054Z,32.54
2017-06-21T12:44:29.166Z,32.57
2017-06-21T12:45:28.860Z,32.63
2017-06-21T12:46:28.857Z,32.61
2017-06-21T12:47:28.859Z,32.59
2017-06-21T12:48:28.860Z,32.61
2017-06-21T12:49:29.169Z,32.61
2017-06-21T12:50:28.555Z,32.49
2017-06-21T12:51:28.865Z,32.41
2017-06-21T12:52:28.861Z,32.35
2017-06-21T12:53:29.173Z,32.3
2017-06-21T12:54:29.194Z,32.35
2017-06-21T12:55:29.170Z,32.35
2017-06-21T12:56:29.179Z,32.27